Time;durP1;ratioP1;P1;durP2;ratioP2;P2;SDS_P1;SDS_P2;PMS_P1;PMS_P2;Temp;Humidity;BMP_temperature;BMP_pressure;BME280_temperature;BME280_humidity;BME280_pressure;Samples;Min_cycle;Max_cycle;Signal;HPM_P1;HPM_P2
2023/01/24 00:01:12;;;;;;;9.05;6.78;;;6.70;79.90;;;;;;5076562;28;20487;-84
2023/01/24 00:03:38;;;;;;;8.07;6.45;;;6.70;79.90;;;;;;5084158;28;20101;-84
2023/01/24 00:06:04;;;;;;;8.77;6.97;;;6.70;80.00;;;;;;5065853;28;20652;-84
2023/01/24 00:08:29;;;;;;;8.05;6.45;;;6.70;80.00;;;;;;5093810;28;20024;-84
2023/01/24 00:11:00;;;;;;;8.48;6.35;;;6.70;80.00;;;;;;5044121;28;20033;-84
2023/01/24 00:13:26;;;;;;;8.75;6.88;;;6.70;80.00;;;;;;5081141;28;20059;-84
2023/01/24 00:16:00;;;;;;;8.82;6.97;;;6.70;80.00;;;;;;5091829;28;20063;-84
2023/01/24 00:18:26;;;;;;;8.38;6.40;;;6.70;80.00;;;;;;5073356;28;20077;-85
2023/01/24 00:20:51;;;;;;;9.63;7.45;;;6.70;79.90;;;;;;5058696;28;20142;-84
2023/01/24 00:23:17;;;;;;;8.90;6.88;;;6.70;80.00;;;;;;5047524;28;20050;-85
2023/01/24 00:25:43;;;;;;;9.48;6.75;;;6.70;79.90;;;;;;5056668;28;20028;-85
2023/01/24 00:28:08;;;;;;;8.90;7.00;;;6.70;79.90;;;;;;5058867;28;20036;-84
2023/01/24 00:30:34;;;;;;;9.55;7.22;;;6.70;80.00;;;;;;5058330;28;20117;-85
2023/01/24 00:33:00;;;;;;;9.07;6.78;;;6.70;80.00;;;;;;5073497;28;20357;-84
2023/01/24 00:35:26;;;;;;;8.55;6.70;;;6.70;80.00;;;;;;5058572;28;20032;-84
2023/01/24 00:37:51;;;;;;;8.80;6.88;;;6.70;80.00;;;;;;5060033;28;20142;-85
2023/01/24 00:40:17;;;;;;;9.60;7.35;;;6.70;80.00;;;;;;5074879;28;20131;-84
2023/01/24 00:42:43;;;;;;;10.15;7.43;;;6.70;80.00;;;;;;5074150;28;20028;-84
2023/01/24 00:45:09;;;;;;;9.07;6.90;;;6.70;80.00;;;;;;5077456;28;20323;-84
2023/01/24 00:47:35;;;;;;;8.40;6.40;;;6.60;80.00;;;;;;5074342;28;20035;-84
2023/01/24 00:50:01;;;;;;;10.45;7.50;;;6.70;80.00;;;;;;5080948;28;20039;-84
2023/01/24 00:52:26;;;;;;;10.25;7.20;;;6.70;80.00;;;;;;5076844;28;20473;-84
2023/01/24 00:54:52;;;;;;;10.10;7.30;;;6.70;80.00;;;;;;5083456;28;20040;-84
2023/01/24 00:57:18;;;;;;;9.07;7.00;;;6.70;80.00;;;;;;5067154;28;20029;-84
2023/01/24 00:59:43;;;;;;;9.25;7.13;;;6.70;80.00;;;;;;5062607;28;20036;-83
2023/01/24 01:02:10;;;;;;;9.48;7.05;;;6.70;80.00;;;;;;5078447;28;20032;-84
2023/01/24 01:04:36;;;;;;;9.38;7.07;;;6.60;79.90;;;;;;5066177;28;20491;-84
2023/01/24 01:07:02;;;;;;;8.93;6.60;;;6.60;79.90;;;;;;5084222;28;20043;-85
2023/01/24 01:09:27;;;;;;;9.32;7.22;;;6.70;80.00;;;;;;5063083;28;20031;-84
2023/01/24 01:11:53;;;;;;;8.90;6.53;;;6.60;80.00;;;;;;5057342;28;20024;-84
2023/01/24 01:14:19;;;;;;;8.60;6.40;;;6.60;80.00;;;;;;5090980;28;20111;-85
2023/01/24 01:16:45;;;;;;;8.98;6.40;;;6.60;80.00;;;;;;5085782;28;20036;-84
2023/01/24 01:19:11;;;;;;;8.77;6.93;;;6.60;80.00;;;;;;5076164;28;20032;-84
2023/01/24 01:21:36;;;;;;;9.90;6.90;;;6.60;80.00;;;;;;5064052;28;20055;-84
2023/01/24 01:24:02;;;;;;;8.02;6.35;;;6.60;80.00;;;;;;5078154;28;20036;-85
2023/01/24 01:26:28;;;;;;;9.38;6.88;;;6.60;80.00;;;;;;5082545;28;20089;-85
2023/01/24 01:28:54;;;;;;;7.72;5.82;;;6.60;80.00;;;;;;5080463;28;20044;-84
2023/01/24 01:31:20;;;;;;;8.57;6.47;;;6.60;80.00;;;;;;5096487;28;20053;-86
2023/01/24 01:33:46;;;;;;;7.75;6.20;;;6.60;80.00;;;;;;5068517;28;20036;-84
2023/01/24 01:36:12;;;;;;;8.25;6.40;;;6.60;80.00;;;;;;5083892;28;20088;-84
2023/01/24 01:38:38;;;;;;;8.10;6.43;;;6.60;80.00;;;;;;5080933;28;20024;-84
2023/01/24 01:41:04;;;;;;;7.82;6.05;;;6.60;80.00;;;;;;5066831;28;20028;-84
2023/01/24 01:43:30;;;;;;;8.20;6.63;;;6.60;80.00;;;;;;5063978;28;20039;-84
2023/01/24 01:46:05;;;;;;;8.38;6.30;;;6.60;80.00;;;;;;5077989;28;20028;-84
2023/01/24 01:48:44;;;;;;;7.97;5.88;;;6.60;80.00;;;;;;5078123;28;20131;-85
2023/01/24 01:51:27;;;;;;;8.32;5.88;;;6.60;80.00;;;;;;5091273;28;20039;-85
2023/01/24 01:54:19;;;;;;;8.13;5.90;;;6.60;80.00;;;;;;5084657;28;20028;-84
2023/01/24 01:56:52;;;;;;;8.07;6.32;;;6.60;80.00;;;;;;5092423;28;20020;-84
2023/01/24 01:59:22;;;;;;;7.35;5.47;;;6.60;80.00;;;;;;5093356;28;20473;-84
2023/01/24 02:01:51;;;;;;;8.13;5.95;;;6.50;80.00;;;;;;5090876;28;20034;-84
2023/01/24 02:04:26;;;;;;;7.97;5.65;;;6.60;80.00;;;;;;5071082;28;20027;-85
2023/01/24 02:07:20;;;;;;;8.05;6.55;;;6.60;80.00;;;;;;5078223;28;20036;-84
2023/01/24 02:09:50;;;;;;;9.20;6.57;;;6.50;80.00;;;;;;5091817;28;20035;-84
2023/01/24 02:12:21;;;;;;;7.72;5.80;;;6.50;79.90;;;;;;5081826;28;20069;-84
2023/01/24 02:17:37;;;;;;;8.30;6.22;;;6.50;80.00;;;;;;5068262;28;20032;-84
2023/01/24 02:20:11;;;;;;;8.20;6.50;;;6.50;80.00;;;;;;5059374;28;20036;-85
2023/01/24 02:22:50;;;;;;;8.93;6.90;;;6.60;80.10;;;;;;5086840;28;20031;-84
2023/01/24 02:25:32;;;;;;;8.30;6.35;;;6.50;80.00;;;;;;5086639;28;20372;-84
2023/01/24 02:27:58;;;;;;;7.57;6.07;;;6.50;80.00;;;;;;5082608;28;20024;-84
2023/01/24 02:30:24;;;;;;;8.43;6.25;;;6.50;80.00;;;;;;5066353;28;20138;-84
2023/01/24 02:32:50;;;;;;;8.68;6.55;;;6.50;80.00;;;;;;5078050;28;20040;-84
2023/01/24 02:35:25;;;;;;;8.70;6.65;;;6.50;80.00;;;;;;5084370;28;20119;-84
2023/01/24 02:37:51;;;;;;;8.18;6.63;;;6.50;80.00;;;;;;5072299;28;20028;-84
2023/01/24 02:40:18;;;;;;;9.23;7.18;;;6.50;80.00;;;;;;5079654;28;20473;-84
2023/01/24 02:42:45;;;;;;;9.05;6.40;;;6.50;80.00;;;;;;5085612;28;20080;-84
2023/01/24 02:45:22;;;;;;;9.02;6.47;;;6.50;80.00;;;;;;5090555;28;20113;-84
2023/01/24 02:47:52;;;;;;;8.35;6.05;;;6.50;80.00;;;;;;5082386;28;20059;-83
2023/01/24 02:50:20;;;;;;;9.05;6.70;;;6.50;80.00;;;;;;5077842;28;20031;-84
2023/01/24 02:55:31;;;;;;;8.27;6.10;;;6.50;80.00;;;;;;5079550;28;20540;-84
2023/01/24 02:58:06;;;;;;;8.23;6.35;;;6.50;80.00;;;;;;5058879;28;20115;-84
2023/01/24 03:00:40;;;;;;;8.25;6.78;;;6.50;80.00;;;;;;5068502;28;20024;-84
2023/01/24 03:03:08;;;;;;;8.77;6.28;;;6.50;80.00;;;;;;5076489;28;20055;-85
2023/01/24 03:05:46;;;;;;;8.45;6.45;;;6.50;80.10;;;;;;5062003;28;20449;-84
2023/01/24 03:08:15;;;;;;;8.30;5.82;;;6.50;80.10;;;;;;5082181;28;20020;-83
2023/01/24 03:10:41;;;;;;;8.43;6.35;;;6.50;80.10;;;;;;5057025;28;20124;-84
2023/01/24 03:35:01;;;;;;;9.10;6.55;;;6.40;80.00;;;;;;5074994;28;20036;-84
2023/01/24 03:40:16;;;;;;;9.40;7.03;;;6.40;80.10;;;;;;5068379;28;20079;-84
2023/01/24 03:42:47;;;;;;;9.48;7.15;;;6.40;80.10;;;;;;5078844;28;20046;-84
2023/01/24 03:45:26;;;;;;;9.20;6.88;;;6.40;80.10;;;;;;5083216;28;20112;-84
2023/01/24 03:47:55;;;;;;;9.95;7.38;;;6.40;80.10;;;;;;5077642;28;20031;-83
2023/01/24 03:53:16;;;;;;;8.65;7.03;;;6.40;80.10;;;;;;5089023;28;20376;-83
2023/01/24 03:55:45;;;;;;;8.98;7.30;;;6.40;80.10;;;;;;5076456;28;20115;-84
2023/01/24 03:58:12;;;;;;;9.02;7.15;;;6.40;80.10;;;;;;5075954;28;20034;-84
2023/01/24 04:00:38;;;;;;;10.45;7.30;;;6.40;80.10;;;;;;5040757;28;20036;-84
2023/01/24 04:03:18;;;;;;;9.85;7.47;;;6.40;80.20;;;;;;5066235;28;20520;-84
2023/01/24 04:05:47;;;;;;;9.38;6.95;;;6.40;80.10;;;;;;5063990;28;20047;-83
2023/01/24 04:08:14;;;;;;;9.85;7.93;;;6.40;80.10;;;;;;5079705;28;20027;-84
2023/01/24 04:10:40;;;;;;;10.35;7.65;;;6.40;80.10;;;;;;5076030;28;20024;-84
2023/01/24 04:13:12;;;;;;;9.70;7.82;;;6.40;80.10;;;;;;5055332;28;20104;-84
2023/01/24 04:15:39;;;;;;;9.68;7.63;;;6.40;80.10;;;;;;5081394;28;20025;-84
2023/01/24 04:18:25;;;;;;;11.13;8.60;;;6.40;80.10;;;;;;5081596;28;20032;-83
2023/01/24 04:20:50;;;;;;;11.02;8.27;;;6.40;80.10;;;;;;5035781;28;20051;-84
2023/01/24 04:23:16;;;;;;;11.13;8.35;;;6.40;80.10;;;;;;5044044;28;20034;-84
2023/01/24 04:25:42;;;;;;;9.77;7.47;;;6.40;80.10;;;;;;5090232;28;20042;-84
2023/01/24 04:28:08;;;;;;;9.80;7.72;;;6.40;80.20;;;;;;5075014;28;20028;-83
2023/01/24 04:30:34;;;;;;;10.20;7.78;;;6.40;80.10;;;;;;5045697;28;20048;-84
2023/01/24 04:33:02;;;;;;;10.98;8.77;;;6.40;80.10;;;;;;5059644;28;20036;-84
2023/01/24 04:35:29;;;;;;;9.93;7.50;;;6.40;80.10;;;;;;5040141;28;20383;-84
2023/01/24 04:38:00;;;;;;;10.00;7.57;;;6.40;80.10;;;;;;5067437;28;20480;-84
2023/01/24 04:41:00;;;;;;;9.43;7.30;;;6.40;80.20;;;;;;5076664;28;20044;-85
2023/01/24 04:43:28;;;;;;;10.38;8.15;;;6.40;80.20;;;;;;5066724;28;20595;-84
2023/01/24 04:45:57;;;;;;;9.40;7.55;;;6.30;80.10;;;;;;5066376;28;20032;-83
2023/01/24 04:48:25;;;;;;;9.70;7.80;;;6.30;80.10;;;;;;5076676;28;20197;-84
2023/01/24 04:50:51;;;;;;;10.43;7.93;;;6.30;80.10;;;;;;5043658;28;20040;-84
2023/01/24 04:53:17;;;;;;;10.55;8.07;;;6.30;80.10;;;;;;5055485;28;20036;-85
2023/01/24 04:55:44;;;;;;;11.02;8.57;;;6.40;80.20;;;;;;5073537;28;20038;-84
2023/01/24 04:58:10;;;;;;;10.27;8.07;;;6.30;80.10;;;;;;5078062;28;20119;-83
2023/01/24 05:00:36;;;;;;;10.55;8.38;;;6.30;80.10;;;;;;5061605;28;20028;-83
2023/01/24 05:03:02;;;;;;;10.85;8.38;;;6.30;80.10;;;;;;5079602;28;20045;-84
2023/01/24 05:05:28;;;;;;;10.10;7.75;;;6.30;80.10;;;;;;5069486;28;20024;-84
2023/01/24 05:07:53;;;;;;;10.90;8.13;;;6.30;80.10;;;;;;5086680;28;20427;-84
2023/01/24 05:10:23;;;;;;;11.85;8.80;;;6.40;80.10;;;;;;5061965;28;20039;-85
2023/01/24 05:12:49;;;;;;;11.13;8.25;;;6.30;80.10;;;;;;5079211;28;20062;-83
2023/01/24 05:15:21;;;;;;;11.18;8.82;;;6.30;80.10;;;;;;5068427;28;20032;-85
2023/01/24 05:17:47;;;;;;;11.15;8.98;;;6.30;80.10;;;;;;5076299;28;20573;-83
2023/01/24 05:20:17;;;;;;;10.23;8.25;;;6.30;80.10;;;;;;5059107;28;20043;-84
2023/01/24 05:22:46;;;;;;;12.48;9.40;;;6.30;80.10;;;;;;5060092;28;20024;-84
2023/01/24 05:25:17;;;;;;;10.40;8.07;;;6.30;80.20;;;;;;5071993;28;20484;-84
2023/01/24 05:27:44;;;;;;;12.13;9.00;;;6.30;80.20;;;;;;5057021;28;20107;-81
2023/01/24 05:30:11;;;;;;;12.05;9.55;;;6.30;80.20;;;;;;5057646;28;20052;-84
2023/01/24 05:32:37;;;;;;;11.43;8.35;;;6.30;80.20;;;;;;5079096;28;20081;-84
2023/01/24 05:35:04;;;;;;;11.10;8.80;;;6.30;80.20;;;;;;5063552;28;20028;-84
2023/01/24 05:37:30;;;;;;;11.20;8.93;;;6.30;80.20;;;;;;5059729;28;20017;-85
2023/01/24 05:39:55;;;;;;;11.13;9.30;;;6.30;80.20;;;;;;5063512;28;20381;-84
2023/01/24 05:42:21;;;;;;;11.07;9.25;;;6.20;80.10;;;;;;5063648;28;20055;-85
2023/01/24 05:44:50;;;;;;;10.77;8.60;;;6.20;80.20;;;;;;5075292;28;20036;-83
2023/01/24 05:47:16;;;;;;;11.93;9.65;;;6.20;80.20;;;;;;5065579;28;20530;-84
2023/01/24 05:49:44;;;;;;;10.88;8.73;;;6.20;80.20;;;;;;5081239;28;20024;-85
2023/01/24 05:52:10;;;;;;;12.65;8.82;;;6.20;80.20;;;;;;5058234;28;20544;-84
2023/01/24 05:54:50;;;;;;;11.07;8.63;;;6.20;80.20;;;;;;5067887;28;20032;-84
2023/01/24 05:57:37;;;;;;;10.73;8.68;;;6.20;80.20;;;;;;5094500;28;20044;-86
2023/01/24 06:00:12;;;;;;;11.30;8.70;;;6.20;80.20;;;;;;5054757;28;20083;-83
2023/01/24 06:02:48;;;;;;;10.98;8.45;;;6.20;80.20;;;;;;5078646;28;20028;-82
2023/01/24 06:05:13;;;;;;;11.82;9.25;;;6.20;80.20;;;;;;5062589;28;20487;-84
2023/01/24 06:07:39;;;;;;;11.95;9.40;;;6.20;80.10;;;;;;5082238;28;20031;-84
2023/01/24 06:10:05;;;;;;;12.18;9.00;;;6.20;80.20;;;;;;5072635;28;20032;-84
2023/01/24 06:12:42;;;;;;;12.57;9.15;;;6.20;80.20;;;;;;5059803;28;20040;-90
2023/01/24 06:15:09;;;;;;;11.30;9.43;;;6.20;80.20;;;;;;5077952;28;20040;-83
2023/01/24 06:17:34;;;;;;;12.15;9.10;;;6.20;80.20;;;;;;5080598;28;20024;-82
2023/01/24 06:20:01;;;;;;;11.35;9.27;;;6.20;80.20;;;;;;5076063;28;20032;-83
2023/01/24 06:22:50;;;;;;;11.68;9.45;;;6.20;80.10;;;;;;5063534;28;20076;-83
2023/01/24 06:25:21;;;;;;;13.00;9.48;;;6.20;80.20;;;;;;5094317;28;20055;-84
2023/01/24 06:27:48;;;;;;;13.13;9.80;;;6.10;80.20;;;;;;5091321;28;20256;-83
2023/01/24 06:30:17;;;;;;;12.20;9.20;;;6.10;80.20;;;;;;5083841;28;20081;-85
2023/01/24 06:33:04;;;;;;;10.80;8.93;;;6.10;80.20;;;;;;5073372;28;20028;-85
2023/01/24 06:35:41;;;;;;;11.02;9.00;;;6.10;80.20;;;;;;5080365;28;20036;-85
2023/01/24 06:38:20;;;;;;;11.77;9.20;;;6.10;80.20;;;;;;5079970;28;20027;-85
2023/01/24 06:40:46;;;;;;;11.63;8.90;;;6.20;80.20;;;;;;5065019;28;20044;-85
2023/01/24 06:43:12;;;;;;;11.18;9.70;;;6.10;80.20;;;;;;5074539;28;20035;-85
2023/01/24 06:45:38;;;;;;;11.77;9.20;;;6.10;80.80;;;;;;5042905;28;20110;-85
2023/01/24 06:48:04;;;;;;;12.88;10.13;;;6.10;80.20;;;;;;5059627;28;20124;-85
2023/01/24 06:50:31;;;;;;;12.13;9.90;;;6.10;80.20;;;;;;5077816;28;20032;-85
2023/01/24 06:52:57;;;;;;;12.20;9.35;;;6.10;80.20;;;;;;5059555;28;20042;-85
2023/01/24 06:55:23;;;;;;;12.07;9.32;;;6.10;80.20;;;;;;5062366;28;20089;-85
2023/01/24 06:57:56;;;;;;;12.07;9.10;;;6.10;80.20;;;;;;5095598;28;20524;-83
2023/01/24 07:00:22;;;;;;;13.48;9.88;;;6.10;80.20;;;;;;5076511;28;20043;-84
2023/01/24 07:02:55;;;;;;;11.30;9.15;;;6.10;80.20;;;;;;5075726;28;20101;-85
2023/01/24 07:05:21;;;;;;;12.88;10.32;;;6.10;80.20;;;;;;5076349;28;20024;-84
2023/01/24 07:07:47;;;;;;;11.75;8.85;;;6.10;80.20;;;;;;5080866;28;20700;-85
2023/01/24 07:10:13;;;;;;;12.32;9.95;;;6.10;80.20;;;;;;5077440;28;20128;-84
2023/01/24 07:12:42;;;;;;;12.68;9.30;;;6.10;80.20;;;;;;5080624;28;20031;-86
2023/01/24 07:15:08;;;;;;;12.10;9.48;;;6.10;80.30;;;;;;5094115;28;20028;-86
2023/01/24 07:17:34;;;;;;;12.63;9.93;;;6.10;80.30;;;;;;5077859;28;20038;-86
2023/01/24 07:20:00;;;;;;;13.40;10.23;;;6.10;80.20;;;;;;5060792;28;20032;-85
2023/01/24 07:22:26;;;;;;;10.88;8.82;;;6.10;80.20;;;;;;5077373;28;20036;-86
2023/01/24 07:24:53;;;;;;;13.05;10.38;;;6.10;80.20;;;;;;5093150;28;20074;-86
2023/01/24 07:27:18;;;;;;;12.57;9.70;;;6.10;80.20;;;;;;5075843;28;20396;-85
2023/01/24 07:29:45;;;;;;;12.50;9.38;;;6.10;80.20;;;;;;5074893;28;20055;-84
2023/01/24 07:32:11;;;;;;;12.57;9.95;;;6.10;80.20;;;;;;5085084;28;20027;-84
2023/01/24 07:34:37;;;;;;;11.00;9.10;;;6.00;80.10;;;;;;5089621;28;20047;-84
2023/01/24 07:37:05;;;;;;;12.27;9.38;;;6.10;80.20;;;;;;5059054;28;20062;-84
2023/01/24 07:39:30;;;;;;;11.85;9.27;;;6.10;80.20;;;;;;5075543;28;20034;-84
2023/01/24 07:41:56;;;;;;;13.90;10.55;;;6.10;80.20;;;;;;5061983;28;20388;-85
2023/01/24 07:44:22;;;;;;;12.40;9.55;;;6.00;80.60;;;;;;5095181;28;20565;-85
2023/01/24 07:46:47;;;;;;;12.65;9.55;;;6.00;80.20;;;;;;5062339;28;20032;-84
2023/01/24 07:49:13;;;;;;;12.57;9.27;;;6.10;80.20;;;;;;5059349;28;20461;-84
2023/01/24 07:51:39;;;;;;;13.00;9.45;;;6.00;80.80;;;;;;5069858;28;20066;-84
2023/01/24 07:54:05;;;;;;;11.80;9.13;;;6.00;80.20;;;;;;5067783;28;20102;-83
2023/01/24 07:56:31;;;;;;;13.20;9.57;;;6.00;80.20;;;;;;5075335;28;20099;-84
2023/01/24 07:58:57;;;;;;;12.18;9.50;;;6.00;80.20;;;;;;5084622;28;20089;-83
2023/01/24 08:01:24;;;;;;;12.35;9.68;;;6.00;80.20;;;;;;5058259;28;20447;-84
2023/01/24 08:03:53;;;;;;;11.98;9.25;;;6.00;80.30;;;;;;5084229;28;20036;-84
2023/01/24 08:06:19;;;;;;;12.38;9.90;;;6.00;80.30;;;;;;5091906;28;20028;-84
2023/01/24 08:08:44;;;;;;;12.85;10.18;;;6.00;80.30;;;;;;5052651;28;20094;-86
2023/01/24 08:11:13;;;;;;;11.82;9.50;;;6.00;80.30;;;;;;5064062;28;20331;-88
2023/01/24 08:13:39;;;;;;;13.13;10.27;;;6.00;80.30;;;;;;5056129;28;20077;-85
2023/01/24 08:16:05;;;;;;;12.95;10.07;;;6.00;80.20;;;;;;5059904;28;20131;-86
2023/01/24 08:18:31;;;;;;;12.25;9.18;;;6.00;80.20;;;;;;5075670;28;20028;-85
2023/01/24 08:20:57;;;;;;;12.07;9.27;;;6.00;80.20;;;;;;5057581;28;20080;-84
2023/01/24 08:23:23;;;;;;;12.93;10.13;;;6.00;80.20;;;;;;5056356;28;20123;-85
2023/01/24 08:25:49;;;;;;;11.32;9.07;;;6.00;80.20;;;;;;5056672;28;20030;-85
2023/01/24 08:28:14;;;;;;;13.32;10.27;;;6.00;80.30;;;;;;5077297;28;20498;-87
2023/01/24 08:30:40;;;;;;;12.55;9.55;;;6.00;80.20;;;;;;5040316;28;20052;-85
2023/01/24 08:33:06;;;;;;;12.75;9.85;;;6.00;80.20;;;;;;5075242;28;20031;-85
2023/01/24 08:35:33;;;;;;;12.77;9.82;;;6.00;80.30;;;;;;5091208;28;20023;-85
2023/01/24 08:38:00;;;;;;;13.88;10.63;;;6.00;80.20;;;;;;5060240;28;20468;-84
2023/01/24 08:40:26;;;;;;;14.25;10.80;;;6.00;80.20;;;;;;5080518;28;20499;-85
2023/01/24 08:42:52;;;;;;;13.23;10.43;;;6.00;80.20;;;;;;5058939;28;20032;-85
2023/01/24 08:45:18;;;;;;;14.38;10.85;;;6.00;80.20;;;;;;5092962;28;20025;-86
2023/01/24 08:47:43;;;;;;;12.35;9.35;;;6.00;80.20;;;;;;5079709;28;20028;-86
2023/01/24 08:50:10;;;;;;;12.98;10.45;;;6.00;80.20;;;;;;5064243;28;20032;-82
2023/01/24 08:52:35;;;;;;;12.38;9.55;;;6.00;80.20;;;;;;5082692;28;20028;-86
2023/01/24 08:55:01;;;;;;;13.68;10.88;;;6.00;80.20;;;;;;5081623;28;20029;-85
2023/01/24 08:57:27;;;;;;;14.10;10.80;;;6.00;80.20;;;;;;5082561;28;20058;-83
2023/01/24 08:59:53;;;;;;;12.73;9.40;;;6.00;80.30;;;;;;5052241;28;20044;-84
2023/01/24 09:02:18;;;;;;;13.05;10.20;;;6.00;80.90;;;;;;5088273;28;20369;-86
2023/01/24 09:04:44;;;;;;;12.90;9.88;;;6.00;80.30;;;;;;5074883;28;20465;-85
2023/01/24 09:07:11;;;;;;;13.07;10.60;;;6.00;80.30;;;;;;5073411;28;20111;-84
2023/01/24 09:09:37;;;;;;;12.90;9.80;;;6.00;80.20;;;;;;5085553;28;20031;-84
2023/01/24 09:12:03;;;;;;;13.63;10.75;;;6.00;80.20;;;;;;5092073;28;20028;-84
2023/01/24 09:14:29;;;;;;;13.48;10.50;;;6.00;80.20;;;;;;5064741;28;20384;-84
2023/01/24 09:16:54;;;;;;;12.38;9.43;;;6.00;80.20;;;;;;5058829;28;20032;-83
2023/01/24 09:19:20;;;;;;;13.05;9.77;;;6.00;80.20;;;;;;5065675;28;20040;-86
2023/01/24 09:21:51;;;;;;;14.55;10.55;;;6.00;80.20;;;;;;5078740;28;20020;-84
2023/01/24 09:24:17;;;;;;;12.93;10.23;;;6.00;80.20;;;;;;5069255;28;20487;-84
2023/01/24 09:26:44;;;;;;;12.10;9.68;;;6.00;80.20;;;;;;5053429;28;20111;-85
2023/01/24 09:29:10;;;;;;;13.07;9.50;;;6.00;80.30;;;;;;5063874;28;20704;-84
2023/01/24 09:31:35;;;;;;;11.90;9.43;;;6.00;80.30;;;;;;5076000;28;20032;-85
2023/01/24 09:34:01;;;;;;;12.85;9.80;;;6.00;80.30;;;;;;5074550;28;20043;-86
2023/01/24 09:36:29;;;;;;;12.68;9.95;;;6.00;80.20;;;;;;5078448;28;20035;-83
2023/01/24 09:38:55;;;;;;;13.43;10.50;;;6.00;80.30;;;;;;5073871;28;20032;-82
2023/01/24 09:41:51;;;;;;;12.90;10.45;;;6.00;80.30;;;;;;5061062;28;20024;-88
2023/01/24 09:44:51;;;;;;;11.15;8.88;;;6.00;80.30;;;;;;5075454;28;20625;-81
2023/01/24 09:47:31;;;;;;;11.05;9.35;;;6.00;80.20;;;;;;5069410;28;20047;-83
2023/01/24 09:50:02;;;;;;;12.43;9.57;;;6.00;80.20;;;;;;5080803;28;20114;-83
2023/01/24 09:52:30;;;;;;;12.38;9.63;;;6.00;80.30;;;;;;5079847;28;20031;-84
2023/01/24 09:55:03;;;;;;;12.40;9.55;;;6.00;80.30;;;;;;5079905;28;20070;-84
2023/01/24 09:57:42;;;;;;;12.32;10.10;;;6.00;80.30;;;;;;5090575;28;20077;-84
2023/01/24 10:00:40;;;;;;;13.65;10.35;;;6.00;80.30;;;;;;5071435;28;20027;-83
2023/01/24 10:03:23;;;;;;;11.63;9.05;;;5.90;80.30;;;;;;5045812;28;20043;-83
2023/01/24 10:05:58;;;;;;;11.77;9.05;;;6.00;80.30;;;;;;5085856;28;20115;-83
2023/01/24 10:08:39;;;;;;;12.10;9.80;;;6.00;80.30;;;;;;5092455;28;20119;-84
2023/01/24 10:11:30;;;;;;;12.48;9.82;;;6.00;80.40;;;;;;5092853;28;20114;-84
2023/01/24 10:14:24;;;;;;;11.77;9.00;;;6.00;80.40;;;;;;5093415;28;20028;-84
2023/01/24 10:17:15;;;;;;;11.85;9.02;;;6.00;80.30;;;;;;5093161;28;20035;-87
2023/01/24 10:19:52;;;;;;;11.90;9.00;;;6.00;80.40;;;;;;5077220;28;20089;-85
2023/01/24 10:22:42;;;;;;;12.30;9.85;;;6.00;80.40;;;;;;5093901;28;20034;-84
2023/01/24 10:25:56;;;;;;;11.93;9.48;;;6.00;80.40;;;;;;5088300;28;20023;-83
2023/01/24 10:28:28;;;;;;;11.90;9.15;;;6.00;80.40;;;;;;5073673;28;20085;-83
2023/01/24 10:31:07;;;;;;;12.40;9.73;;;6.00;80.30;;;;;;5095534;28;20035;-83
2023/01/24 10:33:39;;;;;;;11.85;9.55;;;6.00;80.40;;;;;;5076425;28;20062;-84
2023/01/24 10:36:24;;;;;;;13.48;9.00;;;6.00;80.40;;;;;;5077834;28;20035;-84
2023/01/24 10:38:49;;;;;;;12.60;9.43;;;6.00;80.40;;;;;;5095721;28;20028;-84
2023/01/24 10:41:24;;;;;;;12.30;9.52;;;6.00;80.40;;;;;;5046822;28;20434;-84
2023/01/24 10:44:01;;;;;;;;;;;6.00;80.40;;;;;;5103420;28;20106;-84
2023/01/24 10:46:38;;;;;;;11.13;8.70;;;5.90;80.20;;;;;;5092102;28;20006;-84
2023/01/24 10:49:11;;;;;;;12.23;9.25;;;6.00;80.20;;;;;;5074685;28;20411;-83
2023/01/24 10:51:37;;;;;;;10.65;8.70;;;6.00;80.20;;;;;;5063417;28;20445;-84
2023/01/24 10:54:03;;;;;;;11.38;8.57;;;6.00;80.30;;;;;;5071525;28;20035;-83
2023/01/24 10:56:29;;;;;;;11.00;8.95;;;6.00;80.30;;;;;;5069398;28;20487;-84
2023/01/24 10:59:15;;;;;;;12.10;9.70;;;6.00;80.40;;;;;;5057077;28;20500;-81
2023/01/24 11:01:48;;;;;;;10.98;9.20;;;6.00;80.40;;;;;;5078097;28;20036;-83
2023/01/24 11:04:25;;;;;;;11.15;9.23;;;6.00;80.30;;;;;;5094750;28;20031;-81
2023/01/24 11:06:51;;;;;;;11.35;8.88;;;6.10;80.40;;;;;;5074953;28;20063;-86
2023/01/24 11:09:20;;;;;;;11.82;9.30;;;6.00;80.30;;;;;;5059806;28;20536;-84
2023/01/24 11:11:50;;;;;;;11.98;9.85;;;6.00;80.30;;;;;;5093730;28;20521;-82
2023/01/24 11:14:25;;;;;;;11.45;9.13;;;6.00;80.30;;;;;;5061150;28;20020;-84
2023/01/24 11:16:52;;;;;;;;;;;6.10;80.40;;;;;;5077438;28;20028;-83
2023/01/24 11:19:34;;;;;;;11.23;8.85;;;6.00;80.20;;;;;;5076910;28;19916;-83
2023/01/24 11:22:20;;;;;;;10.25;8.15;;;6.10;80.20;;;;;;5065688;28;20120;-83
2023/01/24 11:24:46;;;;;;;10.65;8.48;;;6.10;80.30;;;;;;5077835;28;20024;-84
2023/01/24 11:27:17;;;;;;;11.38;8.95;;;6.10;80.20;;;;;;5059607;28;20036;-83
2023/01/24 11:29:44;;;;;;;9.95;8.15;;;6.10;80.30;;;;;;5078019;28;20092;-83
2023/01/24 11:32:31;;;;;;;10.93;8.50;;;6.10;80.30;;;;;;5079200;28;20469;-83
2023/01/24 11:34:59;;;;;;;11.35;9.13;;;6.10;80.40;;;;;;5073086;28;20024;-83
2023/01/24 11:37:42;;;;;;;10.90;8.45;;;6.10;80.40;;;;;;5058985;28;20032;-83
2023/01/24 11:40:13;;;;;;;11.00;8.40;;;6.10;80.40;;;;;;5089554;28;20489;-82
2023/01/24 11:43:05;;;;;;;12.40;9.68;;;6.10;80.30;;;;;;5059292;28;20025;-83
2023/01/24 11:45:47;;;;;;;10.77;8.52;;;6.10;80.40;;;;;;5057691;28;20024;-83
2023/01/24 11:48:25;;;;;;;10.88;8.07;;;6.10;80.30;;;;;;5091514;28;20039;-83
2023/01/24 11:51:08;;;;;;;10.77;8.52;;;6.10;80.30;;;;;;5074473;28;20047;-83
2023/01/24 11:53:36;;;;;;;9.98;7.97;;;6.10;80.30;;;;;;5068949;28;20051;-82
2023/01/24 11:56:21;;;;;;;11.32;9.05;;;6.10;80.30;;;;;;5076682;28;20067;-84
2023/01/24 11:59:25;;;;;;;11.05;8.93;;;6.10;80.80;;;;;;5077546;28;20586;-85
2023/01/24 12:02:23;;;;;;;10.82;8.40;;;6.10;80.40;;;;;;5019822;28;20483;-85
2023/01/24 12:05:06;;;;;;;10.63;8.57;;;6.10;80.30;;;;;;5003863;28;20029;-85
2023/01/24 12:07:53;;;;;;;11.40;8.45;;;6.10;80.30;;;;;;5044373;28;20032;-87
2023/01/24 12:10:32;;;;;;;10.57;8.32;;;6.10;80.40;;;;;;5092441;28;20023;-82
2023/01/24 12:13:18;;;;;;;10.23;7.85;;;6.10;80.40;;;;;;5078261;28;20532;-83
2023/01/24 12:16:09;;;;;;;10.25;8.43;;;6.10;80.40;;;;;;5088835;28;20031;-85
2023/01/24 12:19:22;;;;;;;10.43;8.50;;;6.10;80.40;;;;;;5091521;28;20024;-82
2023/01/24 12:21:51;;;;;;;9.93;7.95;;;6.20;80.40;;;;;;5030389;28;20041;-83
2023/01/24 12:24:27;;;;;;;11.25;8.85;;;6.10;80.30;;;;;;5050126;28;20040;-83
2023/01/24 12:26:57;;;;;;;11.38;8.13;;;6.10;80.50;;;;;;5076951;28;20059;-82
2023/01/24 12:29:26;;;;;;;10.00;7.88;;;6.20;80.40;;;;;;5076037;28;20056;-82
2023/01/24 12:31:58;;;;;;;10.40;8.27;;;6.20;80.40;;;;;;5092603;28;20036;-82
2023/01/24 12:34:32;;;;;;;9.73;7.85;;;6.20;80.40;;;;;;5085019;28;20031;-82
2023/01/24 12:37:10;;;;;;;9.25;7.97;;;6.20;80.40;;;;;;5076145;28;20477;-82
2023/01/24 12:39:52;;;;;;;10.25;8.00;;;6.20;80.30;;;;;;5064420;28;20060;-83
2023/01/24 12:42:49;;;;;;;9.27;7.45;;;6.20;80.40;;;;;;5071656;28;20056;-82
2023/01/24 12:45:25;;;;;;;9.15;7.65;;;6.20;80.40;;;;;;5088338;28;20020;-83
2023/01/24 12:48:09;;;;;;;9.10;7.25;;;6.30;80.30;;;;;;5106362;28;20024;-82
2023/01/24 12:51:22;;;;;;;8.77;7.20;;;6.30;80.50;;;;;;5077316;28;20062;-85
2023/01/24 12:54:01;;;;;;;8.63;7.15;;;6.30;80.40;;;;;;5059488;28;20028;-83
2023/01/24 12:56:58;;;;;;;10.35;8.70;;;6.30;80.30;;;;;;5086997;28;20027;-83
2023/01/24 12:59:26;;;;;;;9.30;7.20;;;6.30;80.40;;;;;;5080438;28;20065;-83
2023/01/24 13:02:07;;;;;;;10.52;7.75;;;6.30;80.30;;;;;;5074646;28;20032;-82
2023/01/24 13:04:48;;;;;;;9.82;7.72;;;6.30;80.30;;;;;;5095375;28;20020;-83
2023/01/24 13:07:49;;;;;;;10.07;7.80;;;6.30;80.30;;;;;;5074172;28;20032;-82
2023/01/24 13:10:38;;;;;;;9.45;7.50;;;6.30;80.20;;;;;;5043411;28;20032;-83
2023/01/24 13:13:05;;;;;;;8.63;7.07;;;6.30;80.20;;;;;;5056854;28;20431;-83
2023/01/24 13:15:38;;;;;;;10.32;8.20;;;6.40;80.20;;;;;;5088885;28;20025;-82
2023/01/24 13:18:22;;;;;;;8.82;7.53;;;6.30;80.10;;;;;;5088729;28;20024;-82
2023/01/24 13:21:04;;;;;;;9.18;7.45;;;6.40;80.20;;;;;;5089254;28;20131;-83
2023/01/24 13:24:12;;;;;;;8.55;7.32;;;6.40;80.20;;;;;;5092853;28;20534;-82
2023/01/24 13:26:46;;;;;;;9.05;7.32;;;6.40;80.20;;;;;;5077954;28;20028;-82
2023/01/24 13:29:43;;;;;;;8.80;7.28;;;6.40;80.10;;;;;;5087579;28;20055;-81
2023/01/24 13:32:18;;;;;;;8.95;7.45;;;6.40;80.10;;;;;;5037233;28;20036;-83
2023/01/24 13:34:44;;;;;;;;;;;6.40;80.20;;;;;;5097908;28;20059;-82
2023/01/24 13:37:32;;;;;;;7.32;6.13;;;6.40;80.10;;;;;;5095807;28;20359;-83
2023/01/24 13:40:05;;;;;;;9.65;7.22;;;6.40;80.10;;;;;;5058759;28;20127;-83
2023/01/24 13:42:38;;;;;;;8.27;7.35;;;6.40;80.10;;;;;;5097254;28;20477;-82
2023/01/24 13:45:25;;;;;;;9.00;7.68;;;6.40;80.10;;;;;;5083206;28;20085;-82
2023/01/24 13:47:52;;;;;;;9.32;7.60;;;6.40;80.20;;;;;;5076818;28;20093;-82